Flight Track Log - Related Links

Times and Time Zones

All times are in EDT time to prevent confusion due to time zone crossing. See the N762NC flight status page for this flight to view local times or setup timezone preferences in your user account.

Time Position Orientation Groundspeed Altitude Reporting Facility
EDT Latitude Longitude Course Direction KTS MPH feet Rate Location/Type
Fri 06:51:36 PM 39.2667 -94.7167 45° Northeast 163 188 1,900  Level Kansas City TRACON
Fri 06:52:49 PM 39.2000 -94.7333 191° South 230 265 3,600 1,398 Climbing Kansas City TRACON
Fri 06:53:19 PM 39.1758 -94.7303 174° South 228 262 4,300 1,846 Climbing Kansas City Center
Fri 06:54:20 PM 39.1550 -94.6489 108° East 267 307 6,400 2,226 Climbing Kansas City Center
Fri 06:55:00 PM 39.5853 -94.3548 45° Northeast  Level FlightAware Approximate
Fri 06:55:23 PM 39.2094 -94.5717 48° Northeast 286 329 8,900  Level Kansas City Center
Fri 06:56:00 PM 39.6647 -94.2525 45° Northeast  Level FlightAware Approximate
Fri 06:56:24 PM 39.2847 -94.5364 20° North 300 345 10,600  Level Kansas City Center
Fri 06:57:28 PM 39.3831 -94.4800 24° Northeast 348 400 12,500 1,968 Climbing Kansas City Center
Fri 06:58:29 PM 39.4678 -94.4267 26° Northeast 355 409 14,700 2,112 Climbing Kansas City Center
Fri 06:59:33 PM 39.5714 -94.3722 22° Northeast 359 413 16,900 1,680 Climbing Kansas City Center
Fri 07:00:34 PM 39.6611 -94.3169 25° Northeast 372 428 18,200 1,525 Climbing Kansas City Center
Fri 07:01:35 PM 39.7719 -94.2592 22° Northeast 383 441 20,000 1,440 Climbing Kansas City Center
Fri 07:02:39 PM 39.8650 -94.2019 25° Northeast 386 444 21,200 1,258 Climbing Kansas City Center
Fri 07:03:39 PM 39.9053 -94.0669 69° East 400 460 22,600 1,113 Climbing Kansas City Center
Fri 07:04:43 PM 39.9478 -93.9261 68° East 408 470 23,500 823 Climbing Kansas City Center
Fri 07:05:43 PM 39.9958 -93.7969 64° Northeast 409 471 24,300 1,024 Climbing Kansas City Center
Fri 07:06:46 PM 40.0564 -93.6333 64° Northeast 418 481 25,600 1,000 Climbing Kansas City Center
Fri 07:07:49 PM 40.1108 -93.4983 62° Northeast 422 486 26,400 726 Climbing Kansas City Center
Fri 07:08:50 PM 40.1608 -93.3533 66° East 435 501 27,100 689 Climbing Kansas City Center
Fri 07:09:51 PM 40.2158 -93.2117 63° Northeast 439 505 27,800 624 Climbing Kansas City Center
Fri 07:10:55 PM 40.2694 -93.0672 64° Northeast 443 510 28,400 726 Climbing Kansas City Center
Fri 07:11:55 PM 40.3289 -92.9000 65° Northeast 450 518 29,300 919 Climbing Kansas City Center
Fri 07:12:59 PM 40.3947 -92.7361 62° Northeast 454 522 30,300 816 Climbing Kansas City Center
Fri 07:14:00 PM 40.4472 -92.5831 66° East 458 527 31,000 836 Climbing Kansas City Center
Fri 07:15:01 PM 40.4961 -92.4308 67° East 456 525 32,000 881 Climbing Kansas City Center
Fri 07:15:49 PM 40.5406 -92.3169 63° Northeast 449 517 32,600 764 Climbing Chicago Center
Fri 07:16:51 PM 40.5950 -92.1731 63° Northeast 443 510 33,400 823 Climbing Chicago Center
Fri 07:17:53 PM 40.6467 -92.0286 65° Northeast 441 507 34,300 726 Climbing Chicago Center
Fri 07:18:55 PM 40.6997 -91.8869 64° Northeast 437 503 34,900 339 Climbing Chicago Center
Fri 07:19:57 PM 40.7597 -91.7125 66° East 438 504 35,000 48 Climbing Chicago Center
Fri 07:20:59 PM 40.8164 -91.5675 63° Northeast 445 512 35,000  Level Chicago Center
Fri 07:22:01 PM 40.8661 -91.4175 66° East 450 518 35,000  Level Chicago Center
Fri 07:23:03 PM 40.9239 -91.2619 64° Northeast 449 517 35,000  Level Chicago Center
Fri 07:24:05 PM 40.9664 -91.1047 70° East 454 522 35,000  Level Chicago Center
Fri 07:25:07 PM 41.0097 -90.9500 70° East 449 517 35,000  Level Chicago Center
Fri 07:26:09 PM 41.0519 -90.7947 70° East 446 513 35,000  Level Chicago Center
Fri 07:27:12 PM 41.1033 -90.6089 70° East 447 514 35,000  Level Chicago Center
Fri 07:28:14 PM 41.1392 -90.4494 73° East 448 516 35,000  Level Chicago Center
Fri 07:29:16 PM 41.1775 -90.2925 72° East 446 513 35,000  Level Chicago Center
Fri 07:30:18 PM 41.2111 -90.1336 74° East 446 513 35,000  Level Chicago Center
Fri 07:31:20 PM 41.2397 -89.9731 77° East 445 512 35,000  Level Chicago Center
Fri 07:32:22 PM 41.2575 -89.8067 82° East 450 518 35,000  Level Chicago Center
Fri 07:33:24 PM 41.2786 -89.6408 80° East 452 520 35,000  Level Chicago Center
Fri 07:34:26 PM 41.3056 -89.4414 80° East 455 524 35,000  Level Chicago Center
Fri 07:35:28 PM 41.3300 -89.2758 79° East 454 522 35,000  Level Chicago Center
Fri 07:36:30 PM 41.3589 -89.1283 75° East 447 514 35,000  Level Chicago Center
Fri 07:37:33 PM 41.4006 -88.9753 70° East 443 510 35,000  Level Chicago Center
Fri 07:38:35 PM 41.4461 -88.7892 72° East 443 510 35,000  Level Chicago Center
Fri 07:39:37 PM 41.4867 -88.6350 71° East 441 507 35,000 -194 Level Chicago Center
Fri 07:40:39 PM 41.5256 -88.4803 71° East 441 507 34,600 -629 Descending Chicago Center
Fri 07:41:41 PM 41.5508 -88.3181 78° East 453 521 33,700 -774 Descending Chicago Center
Fri 07:42:43 PM 41.5583 -88.1436 87° East 464 534 33,000 -339 Descending Chicago Center
Fri 07:43:45 PM 41.5839 -87.9725 79° East 462 532 33,000  Level Chicago Center
Fri 07:44:47 PM 41.6072 -87.8044 79° East 459 528 33,000  Level Chicago Center
Fri 07:45:49 PM 41.6358 -87.6072 79° East 451 519 33,000  Level Chicago Center
Fri 07:46:51 PM 41.6558 -87.4419 81° East 452 520 33,000  Level Chicago Center
Fri 07:47:53 PM 41.6764 -87.2786 80° East 449 517 33,000  Level Chicago Center
Fri 07:48:56 PM 41.6967 -87.1156 80° East 447 514 33,000  Level Chicago Center
Fri 07:49:58 PM 41.7092 -86.9519 84° East 445 512 33,000 -290 Level Chicago Center
Fri 07:51:00 PM 41.7253 -86.7569 84° East 443 510 32,400 -774 Descending Chicago Center
Fri 07:52:02 PM 41.7350 -86.5836 86° East 451 519 31,400 -968 Descending Chicago Center
Fri 07:53:04 PM 41.7578 -86.4172 80° East 454 522 30,400 -968 Descending Chicago Center
Fri 07:54:06 PM 41.7825 -86.2492 79° East 458 527 29,400 -871 Descending Chicago Center
Fri 07:55:08 PM 41.8100 -86.0828 77° East 458 527 28,600 -823 Descending Chicago Center
Fri 07:56:10 PM 41.8361 -85.9147 78° East 459 528 27,700 -823 Descending Chicago Center
Fri 07:57:12 PM 41.8742 -85.7581 72° East 443 510 26,900 -1,258 Descending Chicago Center
Fri 07:58:14 PM 41.9094 -85.6025 73° East 434 499 25,100 -2,516 Descending Chicago Center
Fri 07:59:16 PM 41.9492 -85.4236 73° East 417 480 21,700 -2,806 Descending Chicago Center
Fri 08:00:18 PM 41.9825 -85.2811 72° East 403 464 19,300 -1,258 Descending Chicago Center
Fri 08:01:20 PM 42.0011 -85.1519 79° East 402 463 19,100 -145 Descending Chicago Center
Fri 08:02:22 PM 42.0208 -84.9794 81° East 395 455 19,000 -48 Descending Chicago Center
Fri 08:03:25 PM 42.0414 -84.8403 79° East 386 444 19,000  Level Chicago Center
Fri 08:04:27 PM 42.0164 -84.7011 104° East 405 466 19,000  Level Chicago Center
Fri 08:05:29 PM 41.9553 -84.5783 124° Southeast 412 474 19,000 -968 Level Chicago Center
Fri 08:06:31 PM 41.8825 -84.4200 122° Southeast 414 476 17,000 -2,081 Descending Chicago Center
Fri 08:07:33 PM 41.8417 -84.2850 112° Southeast 407 468 14,700 -2,016 Descending Cleveland Center
Fri 08:08:33 PM 41.8017 -84.1683 115° Southeast 393 452 12,900 -1,350 Descending Cleveland Center
Fri 08:09:33 PM 41.8136 -84.0492 82° East 357 411 12,000 -850 Descending Cleveland Center
Fri 08:10:33 PM 41.8786 -83.9689 43° Northeast 286 329 11,200 -1,150 Descending Cleveland Center
Fri 08:11:33 PM 41.9169 -83.8733 62° Northeast 286 329 9,700 -1,600 Descending Cleveland Center
Fri 08:12:33 PM 41.9406 -83.7711 73° East 281 323 8,000 -1,350 Descending Cleveland Center
Fri 08:13:33 PM 41.9622 -83.6689 74° East 276 318 7,000 -1,133 Descending Cleveland Center
Fri 08:14:03 PM 41.9803 -83.6139 66° East 261 300 6,300 -1,200 Descending Cleveland Center
Fri 08:14:33 PM 41.9917 -83.5811 65° Northeast 276 318 5,800 -1,574 Descending Cleveland Center
Fri 08:15:04 PM 42.0158 -83.5289 58° Northeast 259 298 4,700 -1,256 Descending Cleveland Center
Fri 08:15:59 PM 42.0489 -83.4578 58° Northeast 217 250 4,000 -872 Descending Cleveland Center
Fri 08:17:01 PM 42.1000 -83.4236 26° Northeast 194 223 3,000 -1,082 Descending Cleveland Center
Fri 08:18:01 PM 42.1444 -83.3919 28° Northeast 173 199 1,800 -1,033 Descending Cleveland Center
Fri 08:19:03 PM 42.1806 -83.3628 31° Northeast 142 163 900 -871 Descending Cleveland Center

Login

Don't have an account? Register now (free) for customized features, flight alerts, and more!